Time;durP1;ratioP1;P1;durP2;ratioP2;P2;SDS_P1;SDS_P2;PMS_P1;PMS_P2;Temp;Humidity;BMP_temperature;BMP_pressure;BME280_temperature;BME280_humidity;BME280_pressure;Samples;Min_cycle;Max_cycle;Signal;HPM_P1;HPM_P2
2023/10/31 00:00:55;;;;;;;;;;;10.80;99.90;;;;;;8360299;28;19960;-70
2023/10/31 00:04:56;;;;;;;;;;;10.70;99.90;;;;;;8354651;28;19929;-70
2023/10/31 00:08:58;;;;;;;;;;;10.70;99.90;;;;;;8352826;28;20603;-70
2023/10/31 00:13:00;;;;;;;;;;;10.70;99.90;;;;;;8354214;28;19929;-70
2023/10/31 00:17:01;;;;;;;;;;;10.70;99.90;;;;;;8333808;28;19932;-70
2023/10/31 00:21:04;;;;;;;;;;;10.70;99.90;;;;;;8352929;28;20012;-70
2023/10/31 00:25:06;;;;;;;;;;;10.70;99.90;;;;;;8335379;28;20339;-70
2023/10/31 00:29:07;;;;;;;;;;;10.70;99.90;;;;;;8356773;28;20090;-70
2023/10/31 00:33:09;;;;;;;;;;;10.80;99.90;;;;;;8358868;28;19925;-70
2023/10/31 00:37:11;;;;;;;;;;;10.80;99.90;;;;;;8357810;28;19925;-70
2023/10/31 00:41:12;;;;;;;;;;;10.80;99.90;;;;;;8359144;28;19948;-70
2023/10/31 00:45:14;;;;;;;;;;;10.80;99.90;;;;;;8358393;28;20303;-70
2023/10/31 00:49:15;;;;;;;;;;;10.80;99.90;;;;;;8343443;28;20272;-70
2023/10/31 00:53:17;;;;;;;;;;;10.80;99.90;;;;;;8340244;28;20333;-70
2023/10/31 00:57:19;;;;;;;;;;;10.80;99.90;;;;;;8360798;28;19932;-70
2023/10/31 01:01:20;;;;;;;;;;;10.80;99.90;;;;;;8359853;28;19932;-70
2023/10/31 01:05:22;;;;;;;;;;;10.70;99.90;;;;;;8357875;28;19935;-69
2023/10/31 01:09:24;;;;;;;;;;;10.70;99.90;;;;;;8360294;28;19925;-70
2023/10/31 01:13:25;;;;;;;;;;;10.70;99.90;;;;;;8338990;28;20415;-70
2023/10/31 01:17:27;;;;;;;;;;;10.60;99.90;;;;;;8358422;28;19947;-70
2023/10/31 01:21:29;;;;;;;;;;;10.60;99.90;;;;;;8341512;28;19978;-70
2023/10/31 01:25:30;;;;;;;;;;;10.70;99.90;;;;;;8359866;28;19929;-70
2023/10/31 01:29:32;;;;;;;;;;;10.70;99.90;;;;;;8360419;28;20296;-70
2023/10/31 01:33:35;;;;;;;;;;;10.60;99.90;;;;;;8342716;28;19931;-70
2023/10/31 01:37:37;;;;;;;;;;;10.60;99.90;;;;;;8360777;28;19964;-70
2023/10/31 01:41:40;;;;;;;;;;;10.60;99.90;;;;;;8360438;28;19935;-70
2023/10/31 01:45:42;;;;;;;;;;;10.60;99.90;;;;;;8356039;28;19929;-70
2023/10/31 01:49:44;;;;;;;;;;;10.60;99.90;;;;;;8358522;28;19925;-70
2023/10/31 01:53:47;;;;;;;;;;;10.70;99.90;;;;;;8352927;28;19939;-70
2023/10/31 01:57:49;;;;;;;;;;;10.70;99.90;;;;;;8360650;28;20054;-70
2023/10/31 02:01:50;;;;;;;;;;;10.70;99.90;;;;;;8355783;28;20300;-69
2023/10/31 02:05:52;;;;;;;;;;;10.60;99.90;;;;;;8342571;28;20186;-69
2023/10/31 02:09:54;;;;;;;;;;;10.60;99.90;;;;;;8340012;28;19924;-69
2023/10/31 02:13:55;;;;;;;;;;;10.50;99.90;;;;;;8354043;28;20326;-69
2023/10/31 02:17:57;;;;;;;;;;;10.50;99.90;;;;;;8357612;28;19925;-70
2023/10/31 02:21:59;;;;;;;;;;;10.50;99.90;;;;;;8354358;28;19925;-70
2023/10/31 02:26:03;;;;;;;;;;;10.50;99.90;;;;;;8355635;28;20419;-69
2023/10/31 02:30:05;;;;;;;;;;;10.50;99.90;;;;;;8335498;28;19924;-69
2023/10/31 02:34:07;;;;;;;;;;;10.50;99.90;;;;;;8353541;28;20218;-69
2023/10/31 02:38:08;;;;;;;;;;;10.50;99.90;;;;;;8356396;28;20383;-69
2023/10/31 02:42:10;;;;;;;;;;;10.60;99.90;;;;;;8353494;28;19924;-69
2023/10/31 02:46:13;;;;;;;;;;;10.60;99.90;;;;;;8356579;28;19925;-69
2023/10/31 02:50:15;;;;;;;;;;;10.60;99.90;;;;;;8353235;28;19933;-70
2023/10/31 02:54:16;;;;;;;;;;;10.60;99.90;;;;;;8354413;28;19937;-70
2023/10/31 02:58:18;;;;;;;;;;;10.60;99.90;;;;;;8357286;28;19929;-70
2023/10/31 03:02:20;;;;;;;;;;;10.60;99.90;;;;;;8341422;28;20296;-70
2023/10/31 03:06:21;;;;;;;;;;;10.60;99.90;;;;;;8338105;28;19929;-69
2023/10/31 03:10:23;;;;;;;;;;;10.60;99.90;;;;;;8352779;28;20431;-70
2023/10/31 03:14:25;;;;;;;;;;;10.70;99.90;;;;;;8352833;28;19933;-70
2023/10/31 03:18:26;;;;;;;;;;;10.70;99.90;;;;;;8355361;28;20496;-69
2023/10/31 03:22:28;;;;;;;;;;;10.70;99.90;;;;;;8355794;28;19935;-70
2023/10/31 03:26:29;;;;;;;;;;;10.60;99.90;;;;;;8357973;28;19925;-70
2023/10/31 03:30:31;;;;;;;;;;;10.60;99.90;;;;;;8355682;28;19973;-70
2023/10/31 03:34:33;;;;;;;;;;;10.60;99.90;;;;;;8333177;28;20241;-70
2023/10/31 03:38:35;;;;;;;;;;;10.60;99.90;;;;;;8355397;28;20032;-69
2023/10/31 03:42:37;;;;;;;;;;;10.60;99.90;;;;;;8354469;28;19925;-70
2023/10/31 03:46:38;;;;;;;;;;;10.60;99.90;;;;;;8352936;28;19924;-70
2023/10/31 03:50:40;;;;;;;;;;;10.60;99.90;;;;;;8353193;28;20396;-70
2023/10/31 03:54:42;;;;;;;;;;;10.60;99.90;;;;;;8334614;28;19928;-70
2023/10/31 03:58:43;;;;;;;;;;;10.60;99.90;;;;;;8352574;28;19931;-70
2023/10/31 04:02:45;;;;;;;;;;;10.60;99.90;;;;;;8351182;28;19925;-70
2023/10/31 04:06:47;;;;;;;;;;;10.60;99.90;;;;;;8350147;28;19972;-70
2023/10/31 04:10:49;;;;;;;;;;;10.60;99.90;;;;;;8353895;28;20347;-70
2023/10/31 04:14:50;;;;;;;;;;;10.60;99.90;;;;;;8352480;28;20353;-70
2023/10/31 04:18:52;;;;;;;;;;;10.60;99.90;;;;;;8353336;28;20296;-70
2023/10/31 04:22:53;;;;;;;;;;;10.60;99.90;;;;;;8328137;28;19933;-70
2023/10/31 04:26:55;;;;;;;;;;;10.50;99.90;;;;;;8345902;28;19948;-70
2023/10/31 04:30:57;;;;;;;;;;;10.50;99.90;;;;;;8348119;28;20375;-70
2023/10/31 04:34:59;;;;;;;;;;;10.40;99.90;;;;;;8348654;28;19995;-70
2023/10/31 04:39:00;;;;;;;;;;;10.40;99.90;;;;;;8348368;28;20031;-70
2023/10/31 04:53:10;;;;;;;;;;;10.40;99.90;;;;;;8350748;28;19924;-70
2023/10/31 04:57:11;;;;;;;;;;;10.40;99.90;;;;;;8352177;28;19924;-70
2023/10/31 05:01:13;;;;;;;;;;;10.40;99.90;;;;;;8353487;28;19928;-70
2023/10/31 05:10:53;;;;;;;;;;;10.30;99.90;;;;;;8351713;28;19982;-70
2023/10/31 05:14:55;;;;;;;;;;;10.30;99.90;;;;;;8368995;28;19925;-70
2023/10/31 05:18:59;;;;;;;;;;;10.20;99.90;;;;;;8356663;28;19972;-70
2023/10/31 05:23:01;;;;;;;;;;;10.20;99.90;;;;;;8353433;28;19925;-70
2023/10/31 05:27:03;;;;;;;;;;;10.20;99.90;;;;;;8356123;28;20264;-70
2023/10/31 05:31:05;;;;;;;;;;;10.20;99.90;;;;;;8355125;28;20016;-70
2023/10/31 05:35:06;;;;;;;;;;;10.20;99.90;;;;;;8353815;28;19925;-69
2023/10/31 05:39:09;;;;;;;;;;;10.20;99.90;;;;;;8354258;28;20295;-69
2023/10/31 05:43:11;;;;;;;;;;;10.20;99.90;;;;;;8354846;28;20269;-70
2023/10/31 05:47:12;;;;;;;;;;;10.10;99.90;;;;;;8356644;28;19932;-70
2023/10/31 05:51:15;;;;;;;;;;;10.10;99.90;;;;;;8353921;28;20024;-70
2023/10/31 05:55:17;;;;;;;;;;;10.10;99.90;;;;;;8353787;28;19929;-70
2023/10/31 05:59:19;;;;;;;;;;;10.10;99.90;;;;;;8352944;28;19992;-70
2023/10/31 06:03:21;;;;;;;;;;;10.10;99.90;;;;;;8357275;28;20763;-70
2023/10/31 06:12:27;;;;;;;;;;;10.00;99.90;;;;;;8357380;28;19967;-70
2023/10/31 06:16:28;;;;;;;;;;;10.00;99.90;;;;;;8344543;28;19998;-70
2023/10/31 06:20:31;;;;;;;;;;;10.00;99.90;;;;;;8357753;28;19948;-70
2023/10/31 06:24:33;;;;;;;;;;;10.00;99.90;;;;;;8358560;28;19997;-69
2023/10/31 06:28:36;;;;;;;;;;;10.00;99.90;;;;;;8354822;28;19924;-70
2023/10/31 06:32:41;;;;;;;;;;;10.00;99.90;;;;;;8359374;28;19939;-70
2023/10/31 06:36:43;;;;;;;;;;;10.10;99.90;;;;;;8357504;28;19981;-70
2023/10/31 06:40:45;;;;;;;;;;;10.00;99.90;;;;;;8361021;28;19951;-70
2023/10/31 06:59:57;;;;;;;;;;;10.00;99.90;;;;;;8356034;28;20490;-70
2023/10/31 07:03:59;;;;;;;;;;;10.00;99.90;;;;;;8356155;28;19952;-70
2023/10/31 07:08:02;;;;;;;;;;;10.00;99.90;;;;;;8355608;28;19936;-70
2023/10/31 07:12:04;;;;;;;;;;;10.10;99.90;;;;;;8358362;28;19924;-70
2023/10/31 07:16:06;;;;;;;;;;;10.00;99.90;;;;;;8338866;28;19940;-70
2023/10/31 07:20:08;;;;;;;;;;;10.10;99.90;;;;;;8357529;28;19975;-70
2023/10/31 07:24:09;;;;;;;;;;;10.10;99.90;;;;;;8357584;28;20273;-70
2023/10/31 07:28:11;;;;;;;;;;;10.20;99.90;;;;;;8337861;28;19971;-70
2023/10/31 07:32:12;;;;;;;;;;;10.20;99.90;;;;;;8357429;28;19925;-69
2023/10/31 07:36:14;;;;;;;;;;;10.20;99.90;;;;;;8338691;28;19932;-70
2023/10/31 07:40:16;;;;;;;;;;;10.30;99.90;;;;;;8357579;28;19925;-70
2023/10/31 07:44:17;;;;;;;;;;;10.30;99.90;;;;;;8357653;28;20257;-69
2023/10/31 07:48:19;;;;;;;;;;;10.40;99.90;;;;;;8355116;28;20360;-70
2023/10/31 07:52:21;;;;;;;;;;;10.50;99.90;;;;;;8354784;28;19925;-70
2023/10/31 07:56:25;;;;;;;;;;;10.60;99.90;;;;;;8356328;28;19935;-69
2023/10/31 08:00:26;;;;;;;;;;;10.70;99.90;;;;;;8353908;28;20384;-69
2023/10/31 08:04:29;;;;;;;;;;;10.80;99.90;;;;;;8351239;28;19925;-69
2023/10/31 08:08:31;;;;;;;;;;;11.00;99.90;;;;;;8353463;28;19931;-69
2023/10/31 08:12:33;;;;;;;;;;;11.10;99.90;;;;;;8356225;28;19929;-70
2023/10/31 08:16:34;;;;;;;;;;;11.10;99.90;;;;;;8351693;28;19933;-70
2023/10/31 08:20:36;;;;;;;;;;;11.10;99.90;;;;;;8354084;28;19999;-70
2023/10/31 08:24:38;;;;;;;;;;;11.20;99.90;;;;;;8353533;28;20184;-70
2023/10/31 08:28:40;;;;;;;;;;;11.30;99.90;;;;;;8351447;28;19925;-70
2023/10/31 08:32:42;;;;;;;;;;;11.60;99.90;;;;;;8354307;28;19983;-70
2023/10/31 08:36:44;;;;;;;;;;;11.80;99.90;;;;;;8344705;28;19924;-70
2023/10/31 08:40:46;;;;;;;;;;;11.80;99.90;;;;;;8354179;28;20450;-70
2023/10/31 08:44:48;;;;;;;;;;;11.80;99.90;;;;;;8338378;28;19939;-70
2023/10/31 08:48:50;;;;;;;;;;;11.70;99.90;;;;;;8356892;28;19935;-70
2023/10/31 08:52:51;;;;;;;;;;;11.70;99.90;;;;;;8362815;28;19929;-70
2023/10/31 08:56:53;;;;;;;;;;;11.80;99.90;;;;;;8361056;28;20349;-70
2023/10/31 09:00:55;;;;;;;;;;;11.90;99.90;;;;;;8344571;28;19924;-70
2023/10/31 09:04:57;;;;;;;;;;;12.10;99.90;;;;;;8344002;28;19964;-70
2023/10/31 09:08:58;;;;;;;;;;;12.40;99.90;;;;;;8360528;28;19924;-70
2023/10/31 09:13:00;;;;;;;;;;;12.70;99.90;;;;;;8363120;28;19968;-70
2023/10/31 09:17:02;;;;;;;;;;;12.70;99.90;;;;;;8361643;28;20067;-68
2023/10/31 09:21:04;;;;;;;;;;;12.70;99.90;;;;;;8344426;28;19924;-70
2023/10/31 09:25:06;;;;;;;;;;;12.80;99.90;;;;;;8360532;28;19970;-70
2023/10/31 09:29:08;;;;;;;;;;;13.00;99.90;;;;;;8359805;28;20273;-70
2023/10/31 09:33:16;;;;;;;;;;;13.00;99.90;;;;;;8362089;28;19925;-70
2023/10/31 09:37:18;;;;;;;;;;;13.00;99.90;;;;;;8359476;28;19925;-70
2023/10/31 09:41:20;;;;;;;;;;;13.10;99.90;;;;;;8362710;28;19925;-70
2023/10/31 09:45:21;;;;;;;;;;;13.10;99.90;;;;;;8360711;28;19929;-70
2023/10/31 09:49:23;;;;;;;;;;;13.20;99.90;;;;;;8360282;28;19925;-70
2023/10/31 09:53:25;;;;;;;;;;;13.30;99.90;;;;;;8361756;28;19963;-70
2023/10/31 09:57:27;;;;;;;;;;;13.30;99.90;;;;;;8359309;28;19925;-70
2023/10/31 10:01:29;;;;;;;;;;;13.40;99.90;;;;;;8361442;28;19932;-70
2023/10/31 10:05:31;;;;;;;;;;;13.60;99.90;;;;;;8343636;28;19929;-70
2023/10/31 10:09:32;;;;;;;;;;;13.90;99.90;;;;;;8349225;28;19929;-70
2023/10/31 10:13:35;;;;;;;;;;;13.80;99.90;;;;;;8358312;28;19925;-70
2023/10/31 10:17:36;;;;;;;;;;;13.60;99.90;;;;;;8338922;28;19932;-70
2023/10/31 10:21:54;;;;;;;;;;;13.40;99.90;;;;;;8332145;28;20019;-70
2023/10/31 10:25:57;;;;;;;;;;;13.60;99.90;;;;;;8323689;28;19925;-70
2023/10/31 10:29:58;;;;;;;;;;;14.30;99.90;;;;;;8322185;28;19952;-70
2023/10/31 10:34:01;;;;;;;;;;;14.90;99.90;;;;;;8325912;28;20285;-70
2023/10/31 10:38:04;;;;;;;;;;;15.00;99.90;;;;;;8321633;28;20361;-70
2023/10/31 10:42:11;;;;;;;;;;;15.10;99.90;;;;;;8324411;28;20027;-70
2023/10/31 10:46:14;;;;;;;;;;;15.20;99.90;;;;;;8338155;28;20380;-70
2023/10/31 10:50:29;;;;;;;;;;;15.50;99.90;;;;;;8324714;28;19969;-70
2023/10/31 10:54:41;;;;;;;;;;;15.80;99.90;;;;;;8325305;28;19925;-70
2023/10/31 10:58:55;;;;;;;;;;;16.00;99.90;;;;;;8324625;28;19925;-70
2023/10/31 11:02:57;;;;;;;;;;;16.10;99.90;;;;;;8325063;28;19925;-70
2023/10/31 11:06:59;;;;;;;;;;;16.30;99.90;;;;;;8323396;28;19932;-70
2023/10/31 11:11:00;;;;;;;;;;;16.50;99.90;;;;;;8313400;28;20335;-70
2023/10/31 11:15:03;;;;;;;;;;;16.60;99.90;;;;;;8323636;28;19951;-70
2023/10/31 11:19:04;;;;;;;;;;;16.50;99.90;;;;;;8323323;28;19933;-70
2023/10/31 11:23:06;;;;;;;;;;;16.50;99.90;;;;;;8318911;28;19936;-70
2023/10/31 11:27:08;;;;;;;;;;;16.30;99.90;;;;;;8321026;28;20043;-70
2023/10/31 11:31:10;;;;;;;;;;;16.10;99.90;;;;;;8321730;28;19926;-70
2023/10/31 11:35:12;;;;;;;;;;;15.40;99.90;;;;;;8319690;28;19928;-70
2023/10/31 11:39:15;;;;;;;;;;;14.90;99.90;;;;;;8323162;28;19933;-70
2023/10/31 11:43:17;;;;;;;;;;;14.60;99.90;;;;;;8322757;28;19979;-70
2023/10/31 11:47:18;;;;;;;;;;;14.30;99.90;;;;;;8321244;28;19929;-70
2023/10/31 11:51:20;;;;;;;;;;;14.10;99.90;;;;;;8320307;28;19925;-70
2023/10/31 11:55:21;;;;;;;;;;;13.80;99.90;;;;;;8321084;28;19963;-70
2023/10/31 11:59:23;;;;;;;;;;;13.60;99.90;;;;;;8323350;28;19925;-70
2023/10/31 12:03:25;;;;;;;;;;;13.40;99.90;;;;;;8319462;28;19925;-70
2023/10/31 12:07:27;;;;;;;;;;;13.30;99.90;;;;;;8322726;28;19954;-70
2023/10/31 12:11:28;;;;;;;;;;;13.30;99.90;;;;;;8319682;28;20236;-70
2023/10/31 12:15:30;;;;;;;;;;;13.20;99.90;;;;;;8339060;28;20372;-70
2023/10/31 12:19:32;;;;;;;;;;;13.20;99.90;;;;;;8320537;28;20288;-70
2023/10/31 12:23:34;;;;;;;;;;;13.10;99.90;;;;;;8322366;28;19932;-70
2023/10/31 12:27:49;;;;;;;;;;;13.00;99.90;;;;;;8330039;28;20320;-70
2023/10/31 12:31:52;;;;;;;;;;;12.80;99.90;;;;;;8328282;28;19925;-70
2023/10/31 12:35:58;;;;;;;;;;;12.80;99.90;;;;;;8327864;28;19931;-70
2023/10/31 12:40:03;;;;;;;;;;;12.90;99.90;;;;;;8326047;28;20371;-70
2023/10/31 12:44:06;;;;;;;;;;;13.00;99.90;;;;;;8328362;28;19925;-70
2023/10/31 12:48:08;;;;;;;;;;;13.10;99.90;;;;;;8329505;28;20388;-69
2023/10/31 12:52:10;;;;;;;;;;;13.10;99.90;;;;;;8327370;28;19971;-70
2023/10/31 12:56:33;;;;;;;;;;;13.10;99.90;;;;;;8329108;28;19955;-70
2023/10/31 13:00:36;;;;;;;;;;;13.20;99.90;;;;;;8327530;28;23359;-70
2023/10/31 13:04:37;;;;;;;;;;;13.30;99.90;;;;;;8330584;28;19929;-70
2023/10/31 13:08:39;;;;;;;;;;;13.30;99.90;;;;;;8341501;28;19975;-70
2023/10/31 13:12:47;;;;;;;;;;;13.40;99.90;;;;;;8324989;28;20304;-70
2023/10/31 13:16:49;;;;;;;;;;;13.40;99.90;;;;;;8325701;28;19987;-70
2023/10/31 13:20:50;;;;;;;;;;;13.30;99.90;;;;;;8325048;28;19932;-70
2023/10/31 13:24:52;;;;;;;;;;;13.30;99.90;;;;;;8339026;28;19929;-70
2023/10/31 13:28:53;;;;;;;;;;;13.30;99.90;;;;;;8324736;28;19925;-70
2023/10/31 13:32:57;;;;;;;;;;;13.20;99.90;;;;;;8326653;28;20491;-70
2023/10/31 13:36:59;;;;;;;;;;;13.20;99.90;;;;;;8322061;28;19932;-70
2023/10/31 13:41:01;;;;;;;;;;;13.10;99.90;;;;;;8323443;28;19976;-70
2023/10/31 13:45:03;;;;;;;;;;;13.00;99.90;;;;;;8325989;28;20269;-70
2023/10/31 13:49:07;;;;;;;;;;;13.00;99.90;;;;;;8323242;28;19925;-70
2023/10/31 13:53:09;;;;;;;;;;;13.00;99.90;;;;;;8337559;28;19948;-69
2023/10/31 13:57:11;;;;;;;;;;;13.00;99.90;;;;;;8325335;28;19942;-70
2023/10/31 14:01:12;;;;;;;;;;;13.10;99.90;;;;;;8323842;28;19928;-70
2023/10/31 14:05:16;;;;;;;;;;;13.10;99.90;;;;;;8322963;28;19925;-70
2023/10/31 14:09:18;;;;;;;;;;;13.10;99.90;;;;;;8322751;28;19929;-70
2023/10/31 14:13:20;;;;;;;;;;;13.10;99.90;;;;;;8327594;28;20032;-70
2023/10/31 14:17:23;;;;;;;;;;;13.00;99.90;;;;;;8325027;28;19932;-70
2023/10/31 14:21:25;;;;;;;;;;;13.10;99.90;;;;;;8323624;28;19929;-70
2023/10/31 14:25:27;;;;;;;;;;;13.10;99.90;;;;;;8325428;28;19932;-70
2023/10/31 14:29:28;;;;;;;;;;;13.10;99.90;;;;;;8321135;28;19925;-70
2023/10/31 14:33:30;;;;;;;;;;;12.90;99.90;;;;;;8341707;28;19925;-69
2023/10/31 14:37:32;;;;;;;;;;;12.70;99.90;;;;;;8254550;28;2033127;-70
2023/10/31 14:41:34;;;;;;;;;;;12.50;99.90;;;;;;8340679;28;19978;-70
2023/10/31 14:45:36;;;;;;;;;;;12.50;99.90;;;;;;8325903;28;20281;-70
2023/10/31 14:49:39;;;;;;;;;;;12.40;99.90;;;;;;8323037;28;20003;-70
2023/10/31 14:53:40;;;;;;;;;;;12.30;99.90;;;;;;8324156;28;20398;-70
2023/10/31 14:57:42;;;;;;;;;;;12.30;99.90;;;;;;8322399;28;19975;-70
2023/10/31 15:01:43;;;;;;;;;;;12.30;99.90;;;;;;8324509;28;19971;-70
2023/10/31 15:05:45;;;;;;;;;;;12.30;99.90;;;;;;8323755;28;19929;-70
2023/10/31 15:09:48;;;;;;;;;;;12.20;99.90;;;;;;8324547;28;20292;-70
2023/10/31 15:13:51;;;;;;;;;;;12.10;99.90;;;;;;8322429;28;19928;-70
2023/10/31 15:17:53;;;;;;;;;;;12.10;99.90;;;;;;8322595;28;20376;-70
2023/10/31 15:21:55;;;;;;;;;;;12.00;99.90;;;;;;8325543;28;19960;-70
2023/10/31 15:26:00;;;;;;;;;;;11.90;99.90;;;;;;8321259;28;19940;-70
2023/10/31 15:30:02;;;;;;;;;;;11.90;99.90;;;;;;8320816;28;19968;-70
2023/10/31 15:34:04;;;;;;;;;;;11.90;99.90;;;;;;8323214;28;19940;-70
2023/10/31 15:38:06;;;;;;;;;;;11.90;99.90;;;;;;8321499;28;19929;-70
2023/10/31 15:42:09;;;;;;;;;;;11.90;99.90;;;;;;8322127;28;19924;-70
2023/10/31 15:46:10;;;;;;;;;;;11.80;99.90;;;;;;8322445;28;19925;-70
2023/10/31 15:50:12;;;;;;;;;;;11.70;99.90;;;;;;8323804;28;19925;-70
2023/10/31 15:54:14;;;;;;;;;;;11.70;99.90;;;;;;8322321;28;19929;-70
2023/10/31 15:58:16;;;;;;;;;;;11.70;99.90;;;;;;8336490;28;19928;-70
2023/10/31 16:02:18;;;;;;;;;;;11.70;99.90;;;;;;8321869;28;19932;-70
2023/10/31 16:06:19;;;;;;;;;;;11.70;99.90;;;;;;8325025;28;19933;-70
2023/10/31 16:10:22;;;;;;;;;;;11.80;99.90;;;;;;8321112;28;19929;-70
2023/10/31 16:14:24;;;;;;;;;;;11.80;99.90;;;;;;8325811;28;19939;-70
2023/10/31 16:18:26;;;;;;;;;;;11.80;99.90;;;;;;8321472;28;19933;-70
2023/10/31 16:22:28;;;;;;;;;;;11.80;99.90;;;;;;8320724;28;19979;-70
2023/10/31 16:26:29;;;;;;;;;;;11.80;99.90;;;;;;8322999;28;19983;-70
2023/10/31 16:30:31;;;;;;;;;;;11.80;99.90;;;;;;8319744;28;19968;-70
2023/10/31 16:34:33;;;;;;;;;;;11.80;99.90;;;;;;8322297;28;19936;-70
2023/10/31 16:38:34;;;;;;;;;;;11.80;99.90;;;;;;8322742;28;19929;-70
2023/10/31 16:42:36;;;;;;;;;;;11.90;99.90;;;;;;8318018;28;19929;-70
2023/10/31 16:46:45;;;;;;;;;;;11.90;99.90;;;;;;8335402;28;20315;-70
2023/10/31 16:50:47;;;;;;;;;;;11.90;99.90;;;;;;8320486;28;19929;-70
2023/10/31 16:54:49;;;;;;;;;;;11.90;99.90;;;;;;8321886;28;19941;-70
2023/10/31 16:58:51;;;;;;;;;;;11.90;99.90;;;;;;8320466;28;19988;-70
2023/10/31 17:02:52;;;;;;;;;;;11.80;99.90;;;;;;8334549;28;19979;-70
2023/10/31 17:06:54;;;;;;;;;;;11.80;99.90;;;;;;8321010;28;19931;-70
2023/10/31 17:10:56;;;;;;;;;;;11.80;99.90;;;;;;8327651;28;19936;-70
2023/10/31 17:20:04;;;;;;;;;;;11.80;99.90;;;;;;8334140;28;19963;-70
2023/10/31 17:24:06;;;;;;;;;;;11.80;99.90;;;;;;8329680;28;19931;-70
2023/10/31 17:28:07;;;;;;;;;;;11.80;99.90;;;;;;8328528;28;20399;-70
2023/10/31 17:32:10;;;;;;;;;;;11.80;99.90;;;;;;8326547;28;19925;-70
2023/10/31 17:36:18;;;;;;;;;;;11.80;99.90;;;;;;8329936;28;20368;-70
2023/10/31 17:40:22;;;;;;;;;;;11.80;99.90;;;;;;8326743;28;19984;-70
2023/10/31 17:44:24;;;;;;;;;;;11.70;99.90;;;;;;8333081;28;19926;-70
2023/10/31 17:48:26;;;;;;;;;;;11.80;99.90;;;;;;8333453;28;19976;-70
2023/10/31 17:52:27;;;;;;;;;;;11.80;99.90;;;;;;8314281;28;20012;-70
2023/10/31 17:56:29;;;;;;;;;;;11.80;99.90;;;;;;8333832;28;19972;-70
2023/10/31 18:00:31;;;;;;;;;;;11.80;99.90;;;;;;8329793;28;19929;-70
2023/10/31 18:04:32;;;;;;;;;;;11.80;99.90;;;;;;8330665;28;19987;-70
2023/10/31 18:08:34;;;;;;;;;;;11.80;99.90;;;;;;8326496;28;19967;-70
2023/10/31 18:12:36;;;;;;;;;;;11.80;99.90;;;;;;8327884;28;20811;-70
2023/10/31 18:16:38;;;;;;;;;;;11.90;99.90;;;;;;8330695;28;19940;-70
2023/10/31 18:20:39;;;;;;;;;;;11.90;99.90;;;;;;8328060;28;20711;-70
2023/10/31 18:24:42;;;;;;;;;;;11.90;99.90;;;;;;8329999;28;19933;-70
2023/10/31 18:28:44;;;;;;;;;;;11.90;99.90;;;;;;8331255;28;19925;-70
2023/10/31 18:32:46;;;;;;;;;;;11.90;99.90;;;;;;8324755;28;19929;-70
2023/10/31 18:36:47;;;;;;;;;;;12.00;99.90;;;;;;8326127;28;20499;-70
2023/10/31 18:40:49;;;;;;;;;;;12.00;99.90;;;;;;8327616;28;20358;-70
2023/10/31 18:44:51;;;;;;;;;;;12.00;99.90;;;;;;8324376;28;20258;-70
2023/10/31 18:48:55;;;;;;;;;;;12.00;99.90;;;;;;8324849;28;19958;-70
2023/10/31 18:52:57;;;;;;;;;;;12.00;99.90;;;;;;8328708;28;19932;-70
2023/10/31 18:56:58;;;;;;;;;;;12.00;99.90;;;;;;8328925;28;19929;-70
2023/10/31 19:01:00;;;;;;;;;;;12.00;99.90;;;;;;8329421;28;19972;-70
2023/10/31 19:05:04;;;;;;;;;;;12.00;99.90;;;;;;8329601;28;19940;-70
2023/10/31 19:09:05;;;;;;;;;;;12.00;99.90;;;;;;8325405;28;19964;-70
2023/10/31 19:13:07;;;;;;;;;;;12.00;99.90;;;;;;8328368;28;19948;-70
2023/10/31 19:17:09;;;;;;;;;;;12.00;99.90;;;;;;8322335;28;19932;-70
2023/10/31 19:21:10;;;;;;;;;;;11.90;99.90;;;;;;8325241;28;19978;-70
2023/10/31 19:25:12;;;;;;;;;;;12.00;99.90;;;;;;8326881;28;19932;-70
2023/10/31 19:29:14;;;;;;;;;;;12.00;99.90;;;;;;8325674;28;20172;-70
2023/10/31 19:33:16;;;;;;;;;;;12.00;99.90;;;;;;8326094;28;19931;-70
2023/10/31 19:37:18;;;;;;;;;;;12.00;99.90;;;;;;8326078;28;19979;-70
2023/10/31 19:41:19;;;;;;;;;;;12.00;99.90;;;;;;8324966;28;19987;-70
2023/10/31 19:45:21;;;;;;;;;;;12.00;99.90;;;;;;8330484;28;19971;-70
2023/10/31 19:49:23;;;;;;;;;;;12.00;99.90;;;;;;8322853;28;20269;-70
2023/10/31 19:53:25;;;;;;;;;;;12.00;99.90;;;;;;8323576;28;19932;-70
2023/10/31 19:57:27;;;;;;;;;;;12.00;99.90;;;;;;8323671;28;19933;-70
2023/10/31 20:01:29;;;;;;;;;;;12.00;99.90;;;;;;8339347;28;20288;-70
2023/10/31 20:05:31;;;;;;;;;;;12.00;99.90;;;;;;8329918;28;19964;-70
2023/10/31 20:09:33;;;;;;;;;;;12.00;99.90;;;;;;8323074;28;19925;-70
2023/10/31 20:13:34;;;;;;;;;;;11.90;99.90;;;;;;8326379;28;19924;-70
2023/10/31 20:17:37;;;;;;;;;;;11.90;99.90;;;;;;8325265;28;19951;-70
2023/10/31 20:21:39;;;;;;;;;;;11.80;99.90;;;;;;8324293;28;19929;-70
2023/10/31 20:25:41;;;;;;;;;;;11.70;99.90;;;;;;8325222;28;20048;-69
2023/10/31 20:29:42;;;;;;;;;;;11.70;99.90;;;;;;8327389;28;20245;-69
2023/10/31 20:33:44;;;;;;;;;;;11.70;99.90;;;;;;8330306;28;20389;-70
2023/10/31 20:37:46;;;;;;;;;;;11.60;99.90;;;;;;8323263;28;19932;-70
2023/10/31 20:41:47;;;;;;;;;;;11.60;99.90;;;;;;8325755;28;19972;-70
2023/10/31 20:45:49;;;;;;;;;;;11.50;99.90;;;;;;8332647;28;19937;-70
2023/10/31 20:49:53;;;;;;;;;;;11.60;99.90;;;;;;8326858;28;19935;-70
2023/10/31 20:53:54;;;;;;;;;;;11.60;99.90;;;;;;8331963;28;20312;-70
2023/10/31 20:57:56;;;;;;;;;;;11.60;99.90;;;;;;8326768;28;20455;-70
2023/10/31 21:01:58;;;;;;;;;;;11.60;99.90;;;;;;8330669;28;20442;-70
2023/10/31 21:06:00;;;;;;;;;;;11.60;99.90;;;;;;8334920;28;19929;-70
2023/10/31 21:10:02;;;;;;;;;;;11.60;99.90;;;;;;8329705;28;19933;-70
2023/10/31 21:14:04;;;;;;;;;;;11.60;99.90;;;;;;8331154;28;19955;-70
2023/10/31 21:18:07;;;;;;;;;;;11.60;99.90;;;;;;8328337;28;20327;-70
2023/10/31 21:22:09;;;;;;;;;;;11.60;99.90;;;;;;8326055;28;20343;-70
2023/10/31 21:26:11;;;;;;;;;;;11.60;99.90;;;;;;8329505;28;19947;-70
2023/10/31 21:30:13;;;;;;;;;;;11.60;99.90;;;;;;8332686;28;20028;-71
2023/10/31 21:34:14;;;;;;;;;;;11.70;99.90;;;;;;8333293;28;19932;-71
2023/10/31 21:38:17;;;;;;;;;;;11.80;99.90;;;;;;8330686;28;20392;-71
2023/10/31 21:42:19;;;;;;;;;;;11.80;99.90;;;;;;8328778;28;20380;-71
2023/10/31 21:46:20;;;;;;;;;;;11.80;99.90;;;;;;8327865;28;19980;-71
2023/10/31 21:50:22;;;;;;;;;;;11.80;99.90;;;;;;8325660;28;19925;-71
2023/10/31 21:54:25;;;;;;;;;;;11.80;99.90;;;;;;8328500;28;19979;-70
2023/10/31 21:58:26;;;;;;;;;;;11.90;99.90;;;;;;8328599;28;19952;-71
2023/10/31 22:02:28;;;;;;;;;;;11.90;99.90;;;;;;8346824;28;19939;-70
2023/10/31 22:06:30;;;;;;;;;;;11.90;99.90;;;;;;8355354;28;19978;-70
2023/10/31 22:10:32;;;;;;;;;;;11.90;99.90;;;;;;8353054;28;20422;-70
2023/10/31 22:14:34;;;;;;;;;;;11.90;99.90;;;;;;8359304;28;19925;-70
2023/10/31 22:18:35;;;;;;;;;;;11.80;99.90;;;;;;8341191;28;20280;-70
2023/10/31 22:22:37;;;;;;;;;;;11.80;99.90;;;;;;8356389;28;19968;-70
2023/10/31 22:26:39;;;;;;;;;;;11.80;99.90;;;;;;8355565;28;19924;-70
2023/10/31 22:30:40;;;;;;;;;;;11.80;99.90;;;;;;8356035;28;20443;-70
2023/10/31 22:34:42;;;;;;;;;;;11.80;99.90;;;;;;8356971;28;20380;-70
2023/10/31 22:38:44;;;;;;;;;;;11.80;99.90;;;;;;8338961;28;20077;-70
2023/10/31 22:42:46;;;;;;;;;;;11.80;99.90;;;;;;8356929;28;19925;-70
2023/10/31 22:46:48;;;;;;;;;;;11.80;99.90;;;;;;8356687;28;20296;-70
2023/10/31 22:50:49;;;;;;;;;;;11.80;99.90;;;;;;8357019;28;20364;-70
2023/10/31 22:54:51;;;;;;;;;;;11.80;99.90;;;;;;8356509;28;19955;-70
2023/10/31 22:58:53;;;;;;;;;;;11.90;99.90;;;;;;8353830;28;19932;-70
2023/10/31 23:02:55;;;;;;;;;;;11.90;99.90;;;;;;8356954;28;20346;-70
2023/10/31 23:06:56;;;;;;;;;;;11.90;99.90;;;;;;8353311;28;19981;-70
2023/10/31 23:10:58;;;;;;;;;;;11.90;99.90;;;;;;8351497;28;19987;-70
2023/10/31 23:15:00;;;;;;;;;;;11.90;99.90;;;;;;8353826;28;20368;-70
2023/10/31 23:19:02;;;;;;;;;;;11.90;99.90;;;;;;8353286;28;19925;-70
2023/10/31 23:23:04;;;;;;;;;;;11.90;99.90;;;;;;8356616;28;19925;-70
2023/10/31 23:27:07;;;;;;;;;;;11.90;99.90;;;;;;8350889;28;19929;-70
2023/10/31 23:31:08;;;;;;;;;;;11.90;99.90;;;;;;8352821;28;19924;-70
2023/10/31 23:35:10;;;;;;;;;;;11.90;99.90;;;;;;8355981;28;20364;-70
2023/10/31 23:39:12;;;;;;;;;;;11.90;99.90;;;;;;8352101;28;19924;-70
2023/10/31 23:43:13;;;;;;;;;;;11.90;99.90;;;;;;8354868;28;19936;-70
2023/10/31 23:47:15;;;;;;;;;;;11.90;99.90;;;;;;8351705;28;19925;-70
2023/10/31 23:51:20;;;;;;;;;;;11.90;99.90;;;;;;8353950;28;20409;-70
2023/10/31 23:55:24;;;;;;;;;;;11.80;99.90;;;;;;8355270;28;19931;-70
2023/10/31 23:59:26;;;;;;;;;;;11.80;99.90;;;;;;8332384;28;19955;-70
